createdAt,value
2023-12-14T00:01:11.761Z,11.50
2023-12-14T00:04:19.504Z,11.70
2023-12-14T00:07:27.571Z,12.27
2023-12-14T00:10:35.438Z,11.38
2023-12-14T00:13:41.628Z,10.38
2023-12-14T00:16:50.559Z,10.93
2023-12-14T00:19:56.064Z,10.57
2023-12-14T00:23:06.266Z,10.10
2023-12-14T00:26:11.847Z,9.25
2023-12-14T00:29:19.497Z,10.70
2023-12-14T00:32:24.943Z,10.80
2023-12-14T00:35:32.435Z,10.60
2023-12-14T00:38:41.105Z,10.27
2023-12-14T00:41:48.642Z,11.23
2023-12-14T00:44:54.319Z,10.05
2023-12-14T00:48:01.942Z,10.40
2023-12-14T00:51:08.061Z,10.75
2023-12-14T00:54:18.285Z,9.93
2023-12-14T00:57:24.417Z,9.40
2023-12-14T01:00:32.536Z,9.10
2023-12-14T01:03:38.133Z,9.40
2023-12-14T01:06:46.001Z,8.23
2023-12-14T01:09:54.190Z,8.82
2023-12-14T01:13:01.668Z,8.57
2023-12-14T01:16:07.957Z,7.93
2023-12-14T01:19:15.488Z,8.85
2023-12-14T01:22:21.016Z,7.60
2023-12-14T01:25:31.501Z,8.05
2023-12-14T01:28:37.170Z,8.70
2023-12-14T01:31:44.870Z,7.82
2023-12-14T01:34:50.325Z,8.20
2023-12-14T01:37:58.293Z,8.32
2023-12-14T01:41:06.762Z,7.82
2023-12-14T01:44:14.537Z,7.93
2023-12-14T01:47:22.109Z,8.93
2023-12-14T01:50:29.568Z,8.80
2023-12-14T01:53:35.139Z,8.82
2023-12-14T01:56:45.266Z,8.45
2023-12-14T01:59:50.791Z,8.10
2023-12-14T02:02:58.576Z,7.50
2023-12-14T02:06:04.232Z,7.47
2023-12-14T02:09:11.745Z,8.02
2023-12-14T02:12:19.912Z,7.65
2023-12-14T02:15:27.487Z,8.68
2023-12-14T02:18:33.145Z,8.10
2023-12-14T02:21:40.599Z,8.20
2023-12-14T02:24:49.007Z,8.48
2023-12-14T02:27:56.561Z,8.43
2023-12-14T02:31:02.054Z,8.93
2023-12-14T02:34:09.880Z,8.35
2023-12-14T02:37:15.441Z,8.68
2023-12-14T02:40:25.471Z,9.15
2023-12-14T02:43:30.971Z,9.05
2023-12-14T02:46:38.550Z,9.02
2023-12-14T02:49:44.240Z,9.25
2023-12-14T02:52:52.011Z,8.30
2023-12-14T02:56:00.278Z,9.20
2023-12-14T02:59:07.889Z,9.35
2023-12-14T03:02:13.583Z,9.30
2023-12-14T03:05:21.208Z,10.40
2023-12-14T03:08:26.785Z,9.38
2023-12-14T03:11:37.304Z,9.80
2023-12-14T03:14:42.777Z,9.25
2023-12-14T03:17:50.299Z,9.15
2023-12-14T03:20:57.104Z,9.10
2023-12-14T03:24:04.944Z,9.13
2023-12-14T03:27:13.204Z,8.55
2023-12-14T03:30:20.713Z,8.75
2023-12-14T03:33:26.339Z,8.50
2023-12-14T03:36:34.378Z,8.23
2023-12-14T03:39:39.970Z,8.70
2023-12-14T03:42:50.223Z,7.55
2023-12-14T03:45:55.737Z,7.55
2023-12-14T03:49:03.295Z,7.40
2023-12-14T03:52:09.806Z,7.30
2023-12-14T03:55:18.710Z,7.50
2023-12-14T03:58:26.864Z,7.65
2023-12-14T04:01:34.899Z,7.47
2023-12-14T04:04:40.395Z,8.02
2023-12-14T04:07:48.312Z,7.65
2023-12-14T04:10:53.822Z,7.72
2023-12-14T04:14:03.963Z,7.75
2023-12-14T04:17:09.559Z,7.78
2023-12-14T04:20:17.983Z,8.77
2023-12-14T04:23:23.609Z,7.95
2023-12-14T04:26:31.263Z,8.73
2023-12-14T04:29:39.464Z,8.57
2023-12-14T04:32:48.936Z,8.35
2023-12-14T04:35:54.533Z,8.20
2023-12-14T04:39:02.067Z,8.55
2023-12-14T04:42:08.025Z,7.35
2023-12-14T04:45:18.207Z,7.70
2023-12-14T04:48:23.821Z,7.38
2023-12-14T04:51:31.328Z,7.43
2023-12-14T04:54:39.314Z,7.50
2023-12-14T04:57:50.102Z,6.85
2023-12-14T05:00:58.210Z,7.30
2023-12-14T05:04:05.961Z,7.53
2023-12-14T05:07:11.593Z,7.72
2023-12-14T05:10:19.562Z,6.97
2023-12-14T05:13:25.078Z,7.10
2023-12-14T05:16:35.284Z,7.55
2023-12-14T05:19:40.901Z,8.45
2023-12-14T05:22:48.364Z,7.88
2023-12-14T05:25:53.938Z,7.35
2023-12-14T05:29:01.454Z,7.20
2023-12-14T05:32:10.244Z,7.50
2023-12-14T05:35:17.888Z,7.35
2023-12-14T05:38:27.593Z,7.85
2023-12-14T05:41:35.084Z,7.85
2023-12-14T05:44:40.991Z,7.35
2023-12-14T05:47:52.565Z,7.22
2023-12-14T05:50:58.164Z,7.18
2023-12-14T05:54:05.967Z,7.22
2023-12-14T05:57:14.462Z,6.97
2023-12-14T06:00:24.333Z,7.35
2023-12-14T06:03:33.052Z,7.60
2023-12-14T06:06:42.423Z,7.35
2023-12-14T06:09:48.708Z,7.65
2023-12-14T06:12:56.320Z,7.57
2023-12-14T06:16:02.004Z,8.38
2023-12-14T06:19:12.341Z,8.65
2023-12-14T06:22:18.049Z,7.35
2023-12-14T06:25:25.513Z,7.10
2023-12-14T06:28:31.565Z,6.68
2023-12-14T06:31:39.441Z,6.45
2023-12-14T06:34:47.626Z,6.95
2023-12-14T06:37:55.270Z,6.47
2023-12-14T06:41:00.865Z,7.15
2023-12-14T06:44:10.495Z,7.18
2023-12-14T06:47:16.807Z,7.50
2023-12-14T06:50:26.976Z,8.02
2023-12-14T06:53:32.366Z,8.38
2023-12-14T06:56:41.034Z,7.78
2023-12-14T06:59:46.447Z,7.30
2023-12-14T07:02:54.371Z,8.05
2023-12-14T07:06:02.942Z,8.05
2023-12-14T07:09:10.995Z,8.73
2023-12-14T07:12:16.479Z,7.97
2023-12-14T07:15:24.153Z,8.65
2023-12-14T07:18:29.847Z,7.32
2023-12-14T07:21:40.094Z,8.02
2023-12-14T07:24:52.720Z,7.43
2023-12-14T07:28:04.327Z,7.43
2023-12-14T07:31:10.028Z,8.02
2023-12-14T07:34:17.601Z,8.27
2023-12-14T07:37:26.130Z,8.73
2023-12-14T07:40:33.755Z,8.60
2023-12-14T07:43:39.585Z,8.80
2023-12-14T07:46:47.691Z,8.75
2023-12-14T07:49:53.320Z,7.93
2023-12-14T07:53:04.126Z,7.13
2023-12-14T07:56:11.179Z,8.52
2023-12-14T07:59:19.400Z,7.50
2023-12-14T08:02:25.038Z,7.75
2023-12-14T08:05:32.647Z,8.35
2023-12-14T08:08:40.830Z,8.35
2023-12-14T08:11:48.502Z,8.02
2023-12-14T08:14:54.157Z,7.97
2023-12-14T08:18:01.861Z,8.52
2023-12-14T08:21:09.567Z,9.52
2023-12-14T08:24:21.649Z,9.90
2023-12-14T08:27:27.222Z,9.85
2023-12-14T08:30:34.846Z,8.57
2023-12-14T08:33:40.485Z,7.97
2023-12-14T08:36:48.030Z,7.95
2023-12-14T08:39:56.832Z,8.40
2023-12-14T08:43:04.561Z,7.82
2023-12-14T08:46:11.347Z,8.90
2023-12-14T08:49:18.901Z,7.22
2023-12-14T08:52:24.315Z,8.52
2023-12-14T08:55:34.463Z,10.43
2023-12-14T08:58:39.953Z,14.75
2023-12-14T09:01:47.529Z,17.55
2023-12-14T09:04:53.201Z,13.27
2023-12-14T09:08:00.896Z,10.05
2023-12-14T09:11:09.987Z,6.25
2023-12-14T09:14:17.842Z,6.55
2023-12-14T09:17:24.117Z,6.40
2023-12-14T09:20:32.543Z,7.20
2023-12-14T09:23:38.030Z,6.68
2023-12-14T09:26:48.055Z,7.00
2023-12-14T09:29:53.635Z,7.45
2023-12-14T09:33:01.158Z,7.15
2023-12-14T09:36:07.774Z,7.03
2023-12-14T09:39:16.722Z,6.60
2023-12-14T09:42:25.418Z,5.97
2023-12-14T09:45:34.877Z,5.68
2023-12-14T09:48:40.663Z,5.93
2023-12-14T09:51:48.264Z,6.40
2023-12-14T09:54:55.962Z,6.13
2023-12-14T09:58:07.672Z,5.68
2023-12-14T10:01:26.787Z,5.97
2023-12-14T10:04:37.207Z,6.65
2023-12-14T10:07:47.119Z,6.32
2023-12-14T10:10:56.947Z,6.15
2023-12-14T10:14:05.508Z,6.80
2023-12-14T10:17:25.879Z,6.47
2023-12-14T10:20:32.127Z,6.45
2023-12-14T10:23:40.111Z,6.38
2023-12-14T10:26:49.868Z,6.63
2023-12-14T10:30:00.355Z,6.53
2023-12-14T10:33:06.093Z,6.15
2023-12-14T10:36:14.359Z,7.07
2023-12-14T10:39:20.884Z,6.78
2023-12-14T10:42:31.608Z,6.80
2023-12-14T10:45:40.891Z,7.00
2023-12-14T10:48:51.113Z,8.63
2023-12-14T10:51:58.988Z,9.30
2023-12-14T10:55:11.751Z,8.57
2023-12-14T10:58:17.413Z,8.80
2023-12-14T11:01:28.822Z,8.30
2023-12-14T11:04:34.301Z,8.88
2023-12-14T11:07:49.245Z,9.73
2023-12-14T11:10:59.250Z,9.10
2023-12-14T11:14:06.777Z,9.55
2023-12-14T11:17:14.937Z,9.80
2023-12-14T11:20:29.261Z,9.02
2023-12-14T11:23:37.538Z,10.15
2023-12-14T11:26:45.073Z,9.05
2023-12-14T11:29:52.641Z,9.35
2023-12-14T11:33:02.882Z,9.77
2023-12-14T11:36:10.182Z,9.23
2023-12-14T11:39:17.686Z,9.80
2023-12-14T11:42:23.160Z,12.52
2023-12-14T11:45:31.163Z,10.48
2023-12-14T11:48:39.335Z,9.98
2023-12-14T11:51:50.150Z,7.97
2023-12-14T11:54:57.603Z,8.75
2023-12-14T11:58:05.245Z,8.68
2023-12-14T12:01:18.772Z,8.10
2023-12-14T12:04:29.619Z,8.88
2023-12-14T12:07:35.299Z,8.50
2023-12-14T12:10:46.022Z,10.63
2023-12-14T12:13:55.818Z,11.63
2023-12-14T12:17:03.321Z,10.90
2023-12-14T12:20:13.504Z,11.30
2023-12-14T12:23:21.051Z,9.60
2023-12-14T12:26:26.728Z,8.02
2023-12-14T12:29:34.404Z,8.82
2023-12-14T12:32:40.453Z,9.07
2023-12-14T12:35:50.877Z,8.60
2023-12-14T12:38:56.333Z,7.95
2023-12-14T12:42:03.939Z,8.27
2023-12-14T12:45:12.036Z,8.15
2023-12-14T12:48:19.831Z,8.32
2023-12-14T12:51:28.245Z,8.00
2023-12-14T12:54:36.310Z,8.32
2023-12-14T12:57:42.876Z,8.45
2023-12-14T13:00:50.585Z,10.02
2023-12-14T13:04:00.594Z,8.27
2023-12-14T13:07:10.627Z,8.00
2023-12-14T13:10:25.631Z,7.45
2023-12-14T13:13:38.623Z,8.70
2023-12-14T13:16:45.319Z,9.18
2023-12-14T13:19:52.851Z,8.10
2023-12-14T13:23:01.295Z,9.23
2023-12-14T13:26:09.596Z,8.85
2023-12-14T13:29:15.262Z,9.27
2023-12-14T13:32:22.758Z,9.60
2023-12-14T13:35:29.271Z,8.32
2023-12-14T13:38:40.007Z,8.70
2023-12-14T13:41:50.463Z,10.00
2023-12-14T13:44:58.606Z,10.63
2023-12-14T13:48:04.114Z,9.45
2023-12-14T13:51:11.565Z,10.27
2023-12-14T13:54:19.738Z,9.95
2023-12-14T13:57:28.730Z,10.32
2023-12-14T14:00:35.892Z,8.75
2023-12-14T14:03:48.164Z,9.35
2023-12-14T14:06:53.933Z,8.90
2023-12-14T14:10:04.574Z,8.70
2023-12-14T14:13:10.199Z,10.25
2023-12-14T14:16:17.936Z,8.65
2023-12-14T14:19:23.513Z,9.00
2023-12-14T14:22:31.575Z,8.90
2023-12-14T14:25:39.777Z,9.40
2023-12-14T14:28:47.915Z,9.57
2023-12-14T14:31:53.385Z,10.07
2023-12-14T14:35:02.363Z,8.95
2023-12-14T14:38:07.961Z,9.43
2023-12-14T14:41:18.455Z,10.48
2023-12-14T14:44:25.044Z,9.70
2023-12-14T14:47:32.601Z,10.13
2023-12-14T14:50:38.602Z,9.48
2023-12-14T14:53:46.278Z,8.73
2023-12-14T14:56:54.284Z,10.20
2023-12-14T15:00:01.949Z,8.65
2023-12-14T15:03:10.845Z,9.15
2023-12-14T15:06:18.460Z,9.13
2023-12-14T15:09:23.944Z,9.10
2023-12-14T15:12:34.327Z,9.30
2023-12-14T15:15:40.520Z,8.90
2023-12-14T15:18:48.804Z,8.65
2023-12-14T15:21:54.561Z,9.48
2023-12-14T15:25:02.098Z,8.98
2023-12-14T15:28:10.566Z,9.10
2023-12-14T15:31:18.154Z,8.82
2023-12-14T15:34:23.675Z,8.75
2023-12-14T15:37:31.196Z,8.27
2023-12-14T15:40:37.061Z,9.38
2023-12-14T15:43:47.613Z,9.15
2023-12-14T15:46:53.353Z,9.20
2023-12-14T15:50:00.899Z,9.05
2023-12-14T15:53:06.497Z,9.27
2023-12-14T15:56:14.214Z,9.82
2023-12-14T15:59:22.377Z,9.00
2023-12-14T16:02:30.063Z,8.05
2023-12-14T16:05:35.789Z,9.13
2023-12-14T16:08:43.455Z,9.55
2023-12-14T16:11:48.945Z,9.95
2023-12-14T16:14:59.536Z,9.15
2023-12-14T16:18:06.498Z,9.52
2023-12-14T16:21:14.907Z,10.13
2023-12-14T16:24:21.067Z,11.75
2023-12-14T16:27:28.552Z,12.15
2023-12-14T16:30:37.001Z,10.55
2023-12-14T16:33:45.092Z,10.52
2023-12-14T16:36:51.656Z,10.05
2023-12-14T16:39:59.459Z,9.82
2023-12-14T16:43:04.918Z,10.23
2023-12-14T16:46:19.829Z,10.40
2023-12-14T16:49:25.428Z,11.20
2023-12-14T16:52:33.326Z,14.57
2023-12-14T16:55:38.921Z,11.38
2023-12-14T16:58:46.461Z,12.40
2023-12-14T17:01:54.635Z,15.30
2023-12-14T17:05:04.320Z,15.23
2023-12-14T17:08:10.368Z,16.35
2023-12-14T17:11:18.311Z,18.15
2023-12-14T17:14:24.570Z,13.60
2023-12-14T17:17:36.919Z,11.00
2023-12-14T17:20:42.407Z,11.55
2023-12-14T17:23:50.312Z,10.50
2023-12-14T17:26:56.763Z,11.57
2023-12-14T17:30:04.483Z,10.05
2023-12-14T17:33:13.758Z,10.35
2023-12-14T17:36:21.513Z,11.05
2023-12-14T17:39:27.103Z,10.65
2023-12-14T17:42:36.847Z,12.75
2023-12-14T17:45:42.683Z,12.98
2023-12-14T17:48:53.168Z,11.85
2023-12-14T17:51:58.617Z,12.20
2023-12-14T17:55:06.219Z,11.35
2023-12-14T17:58:12.095Z,11.13
2023-12-14T18:01:19.707Z,12.52
2023-12-14T18:04:28.162Z,12.43
2023-12-14T18:07:35.829Z,11.65
2023-12-14T18:10:41.984Z,12.32
2023-12-14T18:13:49.495Z,10.82
2023-12-14T18:16:55.022Z,11.40
2023-12-14T18:20:05.695Z,10.82
2023-12-14T18:23:11.285Z,10.77
2023-12-14T18:26:19.077Z,10.30
2023-12-14T18:29:24.726Z,10.88
2023-12-14T18:32:32.743Z,11.30
2023-12-14T18:35:40.960Z,10.35
2023-12-14T18:38:48.369Z,11.02
2023-12-14T18:41:54.500Z,10.95
2023-12-14T18:45:02.008Z,10.13
2023-12-14T18:48:07.893Z,11.05
2023-12-14T18:51:18.067Z,10.77
2023-12-14T18:54:24.879Z,10.70
2023-12-14T18:57:32.548Z,11.23
2023-12-14T19:00:38.327Z,12.07
2023-12-14T19:03:45.846Z,11.95
2023-12-14T19:06:53.953Z,12.45
2023-12-14T19:10:03.788Z,11.82
2023-12-14T19:13:10.982Z,12.77
2023-12-14T19:16:26.671Z,12.90
2023-12-14T19:19:32.273Z,15.13
2023-12-14T19:22:42.550Z,13.60
2023-12-14T19:25:48.979Z,15.82
2023-12-14T19:28:57.667Z,20.20
2023-12-14T19:32:03.265Z,15.45
2023-12-14T19:35:11.473Z,14.15
2023-12-14T19:38:19.812Z,20.52
2023-12-14T19:41:27.699Z,18.35
2023-12-14T19:44:33.604Z,13.77
2023-12-14T19:47:42.670Z,14.52
2023-12-14T19:50:48.641Z,13.90
2023-12-14T19:53:58.958Z,13.88
2023-12-14T19:57:04.609Z,13.55
2023-12-14T20:00:13.500Z,13.68
2023-12-14T20:03:19.129Z,13.38
2023-12-14T20:06:26.965Z,12.57
2023-12-14T20:09:36.305Z,12.98
2023-12-14T20:12:45.122Z,13.73
2023-12-14T20:15:50.610Z,13.60
2023-12-14T20:18:58.125Z,13.10
2023-12-14T20:22:03.702Z,14.60
2023-12-14T20:25:14.226Z,14.73
2023-12-14T20:28:19.654Z,13.77
2023-12-14T20:31:27.670Z,13.93
2023-12-14T20:34:33.211Z,14.50
2023-12-14T20:37:40.853Z,15.27
2023-12-14T20:40:49.091Z,15.18
2023-12-14T20:43:56.647Z,14.45
2023-12-14T20:47:02.124Z,15.45
2023-12-14T20:50:11.203Z,14.38
2023-12-14T20:53:16.755Z,14.60
2023-12-14T20:56:27.271Z,13.90
2023-12-14T20:59:32.736Z,13.73
2023-12-14T21:02:41.485Z,14.48
2023-12-14T21:05:49.493Z,16.45
2023-12-14T21:08:56.999Z,15.07
2023-12-14T21:12:05.083Z,14.38
2023-12-14T21:15:12.768Z,14.75
2023-12-14T21:18:18.482Z,14.85
2023-12-14T21:21:26.145Z,14.70
2023-12-14T21:24:31.606Z,15.77
2023-12-14T21:27:48.168Z,15.52
2023-12-14T21:30:51.558Z,14.23
2023-12-14T21:33:59.102Z,15.70
2023-12-14T21:37:04.799Z,14.80
2023-12-14T21:40:14.902Z,16.38
2023-12-14T21:43:23.377Z,16.10
2023-12-14T21:46:30.898Z,16.00
2023-12-14T21:49:36.445Z,16.02
2023-12-14T21:52:44.031Z,15.82
2023-12-14T21:55:50.531Z,16.67
2023-12-14T21:59:00.759Z,16.90
2023-12-14T22:02:06.401Z,16.80
2023-12-14T22:05:14.252Z,15.88
2023-12-14T22:08:19.826Z,15.60
2023-12-14T22:11:27.651Z,17.35
2023-12-14T22:14:35.923Z,18.25
2023-12-14T22:17:43.925Z,17.52
2023-12-14T22:20:49.746Z,15.30
2023-12-14T22:23:57.383Z,16.20
2023-12-14T22:27:03.372Z,15.10
2023-12-14T22:30:14.478Z,15.32
2023-12-14T22:33:20.744Z,15.93
2023-12-14T22:36:28.334Z,15.20
2023-12-14T22:39:33.777Z,15.70
2023-12-14T22:42:41.424Z,16.15
2023-12-14T22:45:49.628Z,15.57
2023-12-14T22:48:57.136Z,15.00
2023-12-14T22:52:02.876Z,17.35
2023-12-14T22:55:13.181Z,18.33
2023-12-14T22:58:18.659Z,17.75
2023-12-14T23:01:37.419Z,17.55
2023-12-14T23:04:44.556Z,16.17
2023-12-14T23:07:52.199Z,15.73
2023-12-14T23:10:57.745Z,15.65
2023-12-14T23:14:05.325Z,16.38
2023-12-14T23:17:13.473Z,18.83
2023-12-14T23:20:21.218Z,17.48
2023-12-14T23:23:28.780Z,17.63
2023-12-14T23:26:34.351Z,16.67
2023-12-14T23:29:42.573Z,16.73
2023-12-14T23:32:50.716Z,15.27
2023-12-14T23:35:58.243Z,17.27
2023-12-14T23:39:04.103Z,17.13
2023-12-14T23:42:11.650Z,14.35
2023-12-14T23:45:17.312Z,14.93
2023-12-14T23:48:27.666Z,15.40
2023-12-14T23:51:33.228Z,16.52
2023-12-14T23:54:40.736Z,15.15
2023-12-14T23:57:47.454Z,16.02
